sensor_id;sensor_type;location;lat;lon;timestamp;P1;durP1;ratioP1;P2;durP2;ratioP2
30080;SDS011;16902;50.816;12.828;2022-11-20T00:02:31;66.77;;;34.17;;
30080;SDS011;16902;50.816;12.828;2022-11-20T00:07:33;58.07;;;31.43;;
30080;SDS011;16902;50.816;12.828;2022-11-20T00:12:35;56.10;;;30.40;;
30080;SDS011;16902;50.816;12.828;2022-11-20T00:17:36;62.17;;;31.77;;
30080;SDS011;16902;50.816;12.828;2022-11-20T00:22:38;55.47;;;31.40;;
30080;SDS011;16902;50.816;12.828;2022-11-20T00:27:39;59.10;;;31.73;;
30080;SDS011;16902;50.816;12.828;2022-11-20T00:32:41;59.07;;;30.63;;
30080;SDS011;16902;50.816;12.828;2022-11-20T00:37:43;59.43;;;31.17;;
30080;SDS011;16902;50.816;12.828;2022-11-20T00:42:44;61.50;;;31.53;;
30080;SDS011;16902;50.816;12.828;2022-11-20T00:47:46;59.20;;;30.53;;
30080;SDS011;16902;50.816;12.828;2022-11-20T00:52:48;61.30;;;31.27;;
30080;SDS011;16902;50.816;12.828;2022-11-20T00:57:49;55.03;;;28.70;;
30080;SDS011;16902;50.816;12.828;2022-11-20T01:02:51;52.00;;;28.83;;
30080;SDS011;16902;50.816;12.828;2022-11-20T01:07:52;58.53;;;29.70;;
30080;SDS011;16902;50.816;12.828;2022-11-20T01:12:54;55.73;;;29.20;;
30080;SDS011;16902;50.816;12.828;2022-11-20T01:18:14;45.73;;;27.37;;
30080;SDS011;16902;50.816;12.828;2022-11-20T01:23:16;53.03;;;26.87;;
30080;SDS011;16902;50.816;12.828;2022-11-20T01:28:17;51.83;;;26.90;;
30080;SDS011;16902;50.816;12.828;2022-11-20T01:33:19;51.53;;;26.93;;
30080;SDS011;16902;50.816;12.828;2022-11-20T01:38:21;48.03;;;26.60;;
30080;SDS011;16902;50.816;12.828;2022-11-20T01:43:24;50.23;;;24.87;;
30080;SDS011;16902;50.816;12.828;2022-11-20T01:48:28;50.10;;;26.83;;
30080;SDS011;16902;50.816;12.828;2022-11-20T01:53:34;52.80;;;27.27;;
30080;SDS011;16902;50.816;12.828;2022-11-20T01:58:38;51.87;;;27.13;;
30080;SDS011;16902;50.816;12.828;2022-11-20T02:03:45;49.63;;;27.27;;
30080;SDS011;16902;50.816;12.828;2022-11-20T02:08:48;47.73;;;26.57;;
30080;SDS011;16902;50.816;12.828;2022-11-20T02:13:49;48.23;;;26.17;;
30080;SDS011;16902;50.816;12.828;2022-11-20T02:18:52;48.93;;;26.47;;
30080;SDS011;16902;50.816;12.828;2022-11-20T02:29:05;45.03;;;25.40;;
30080;SDS011;16902;50.816;12.828;2022-11-20T02:34:07;49.00;;;24.73;;
30080;SDS011;16902;50.816;12.828;2022-11-20T02:39:09;44.03;;;23.47;;
30080;SDS011;16902;50.816;12.828;2022-11-20T02:44:14;44.97;;;23.70;;
30080;SDS011;16902;50.816;12.828;2022-11-20T02:49:16;44.80;;;23.83;;
30080;SDS011;16902;50.816;12.828;2022-11-20T02:54:18;44.80;;;24.47;;
30080;SDS011;16902;50.816;12.828;2022-11-20T02:59:20;44.53;;;23.10;;
30080;SDS011;16902;50.816;12.828;2022-11-20T03:04:22;49.57;;;24.37;;
30080;SDS011;16902;50.816;12.828;2022-11-20T03:09:24;42.90;;;24.73;;
30080;SDS011;16902;50.816;12.828;2022-11-20T03:14:25;46.13;;;24.90;;
30080;SDS011;16902;50.816;12.828;2022-11-20T03:19:28;43.13;;;24.27;;
30080;SDS011;16902;50.816;12.828;2022-11-20T03:24:30;49.43;;;25.40;;
30080;SDS011;16902;50.816;12.828;2022-11-20T03:29:31;44.40;;;24.23;;
30080;SDS011;16902;50.816;12.828;2022-11-20T03:34:33;43.67;;;23.83;;
30080;SDS011;16902;50.816;12.828;2022-11-20T03:39:35;46.97;;;24.33;;
30080;SDS011;16902;50.816;12.828;2022-11-20T03:44:36;49.23;;;23.67;;
30080;SDS011;16902;50.816;12.828;2022-11-20T03:49:38;43.50;;;22.67;;
30080;SDS011;16902;50.816;12.828;2022-11-20T03:54:40;45.80;;;25.50;;
30080;SDS011;16902;50.816;12.828;2022-11-20T03:59:41;44.17;;;20.83;;
30080;SDS011;16902;50.816;12.828;2022-11-20T04:04:43;41.53;;;23.70;;
30080;SDS011;16902;50.816;12.828;2022-11-20T04:09:44;45.40;;;22.93;;
30080;SDS011;16902;50.816;12.828;2022-11-20T04:14:46;47.93;;;23.87;;
30080;SDS011;16902;50.816;12.828;2022-11-20T04:19:48;39.10;;;23.23;;
30080;SDS011;16902;50.816;12.828;2022-11-20T04:24:49;41.13;;;22.47;;
30080;SDS011;16902;50.816;12.828;2022-11-20T04:29:51;41.13;;;22.70;;
30080;SDS011;16902;50.816;12.828;2022-11-20T04:34:52;36.77;;;20.93;;
30080;SDS011;16902;50.816;12.828;2022-11-20T04:39:54;35.17;;;20.20;;
30080;SDS011;16902;50.816;12.828;2022-11-20T04:44:56;37.20;;;19.87;;
30080;SDS011;16902;50.816;12.828;2022-11-20T04:49:58;44.20;;;21.93;;
30080;SDS011;16902;50.816;12.828;2022-11-20T04:55:00;42.33;;;21.37;;
30080;SDS011;16902;50.816;12.828;2022-11-20T05:00:02;35.37;;;20.73;;
30080;SDS011;16902;50.816;12.828;2022-11-20T05:05:04;38.50;;;20.73;;
30080;SDS011;16902;50.816;12.828;2022-11-20T05:10:06;35.03;;;18.67;;
30080;SDS011;16902;50.816;12.828;2022-11-20T05:15:08;29.83;;;19.30;;
30080;SDS011;16902;50.816;12.828;2022-11-20T05:20:10;34.97;;;18.77;;
30080;SDS011;16902;50.816;12.828;2022-11-20T05:25:12;40.27;;;20.20;;
30080;SDS011;16902;50.816;12.828;2022-11-20T05:30:14;34.53;;;19.53;;
30080;SDS011;16902;50.816;12.828;2022-11-20T05:35:16;35.37;;;18.80;;
30080;SDS011;16902;50.816;12.828;2022-11-20T05:40:17;35.13;;;19.07;;
30080;SDS011;16902;50.816;12.828;2022-11-20T05:45:19;41.37;;;19.13;;
30080;SDS011;16902;50.816;12.828;2022-11-20T05:50:20;34.57;;;19.23;;
30080;SDS011;16902;50.816;12.828;2022-11-20T05:55:22;31.87;;;18.40;;
30080;SDS011;16902;50.816;12.828;2022-11-20T06:00:24;35.80;;;19.07;;
30080;SDS011;16902;50.816;12.828;2022-11-20T06:05:25;32.00;;;18.67;;
30080;SDS011;16902;50.816;12.828;2022-11-20T06:10:27;35.03;;;20.37;;
30080;SDS011;16902;50.816;12.828;2022-11-20T06:15:29;41.80;;;20.37;;
30080;SDS011;16902;50.816;12.828;2022-11-20T06:20:30;34.93;;;18.63;;
30080;SDS011;16902;50.816;12.828;2022-11-20T06:25:32;35.00;;;18.30;;
30080;SDS011;16902;50.816;12.828;2022-11-20T06:30:33;35.07;;;18.13;;
30080;SDS011;16902;50.816;12.828;2022-11-20T06:35:35;30.87;;;18.20;;
30080;SDS011;16902;50.816;12.828;2022-11-20T06:40:39;33.63;;;18.17;;
30080;SDS011;16902;50.816;12.828;2022-11-20T06:45:42;32.87;;;18.30;;
30080;SDS011;16902;50.816;12.828;2022-11-20T06:50:44;36.27;;;18.20;;
30080;SDS011;16902;50.816;12.828;2022-11-20T06:55:45;31.03;;;18.23;;
30080;SDS011;16902;50.816;12.828;2022-11-20T07:00:48;32.90;;;18.43;;
30080;SDS011;16902;50.816;12.828;2022-11-20T07:05:50;31.97;;;17.57;;
30080;SDS011;16902;50.816;12.828;2022-11-20T07:10:52;33.33;;;17.50;;
30080;SDS011;16902;50.816;12.828;2022-11-20T07:15:53;25.00;;;15.43;;
30080;SDS011;16902;50.816;12.828;2022-11-20T07:20:55;34.17;;;16.33;;
30080;SDS011;16902;50.816;12.828;2022-11-20T07:25:57;27.97;;;15.70;;
30080;SDS011;16902;50.816;12.828;2022-11-20T07:30:59;29.40;;;17.33;;
30080;SDS011;16902;50.816;12.828;2022-11-20T07:36:01;29.70;;;17.40;;
30080;SDS011;16902;50.816;12.828;2022-11-20T07:41:03;40.17;;;21.03;;
30080;SDS011;16902;50.816;12.828;2022-11-20T07:46:05;51.97;;;22.63;;
30080;SDS011;16902;50.816;12.828;2022-11-20T07:51:07;51.73;;;25.97;;
30080;SDS011;16902;50.816;12.828;2022-11-20T07:56:08;49.03;;;25.23;;
30080;SDS011;16902;50.816;12.828;2022-11-20T08:01:10;58.53;;;30.60;;
30080;SDS011;16902;50.816;12.828;2022-11-20T08:06:12;51.27;;;29.43;;
30080;SDS011;16902;50.816;12.828;2022-11-20T08:11:14;64.33;;;30.43;;
30080;SDS011;16902;50.816;12.828;2022-11-20T08:16:51;42.37;;;24.23;;
30080;SDS011;16902;50.816;12.828;2022-11-20T08:21:52;34.10;;;21.60;;
30080;SDS011;16902;50.816;12.828;2022-11-20T08:26:56;32.53;;;21.73;;
30080;SDS011;16902;50.816;12.828;2022-11-20T08:31:59;34.27;;;19.90;;
30080;SDS011;16902;50.816;12.828;2022-11-20T08:37:01;33.00;;;20.40;;
30080;SDS011;16902;50.816;12.828;2022-11-20T08:42:06;49.43;;;34.57;;
30080;SDS011;16902;50.816;12.828;2022-11-20T08:47:09;37.57;;;21.03;;
30080;SDS011;16902;50.816;12.828;2022-11-20T08:52:10;34.40;;;21.47;;
30080;SDS011;16902;50.816;12.828;2022-11-20T08:57:12;39.20;;;22.47;;
30080;SDS011;16902;50.816;12.828;2022-11-20T09:02:13;43.83;;;27.30;;
30080;SDS011;16902;50.816;12.828;2022-11-20T09:07:15;38.17;;;24.73;;
30080;SDS011;16902;50.816;12.828;2022-11-20T09:12:17;32.07;;;20.47;;
30080;SDS011;16902;50.816;12.828;2022-11-20T09:17:19;39.10;;;24.77;;
30080;SDS011;16902;50.816;12.828;2022-11-20T09:22:21;32.77;;;21.73;;
30080;SDS011;16902;50.816;12.828;2022-11-20T09:27:23;32.33;;;23.40;;
30080;SDS011;16902;50.816;12.828;2022-11-20T09:32:25;38.73;;;24.83;;
30080;SDS011;16902;50.816;12.828;2022-11-20T09:37:26;42.37;;;31.70;;
30080;SDS011;16902;50.816;12.828;2022-11-20T09:58:45;120.23;;;51.93;;
30080;SDS011;16902;50.816;12.828;2022-11-20T10:25:06;27.27;;;15.77;;
30080;SDS011;16902;50.816;12.828;2022-11-20T10:30:18;25.17;;;15.37;;
30080;SDS011;16902;50.816;12.828;2022-11-20T10:35:28;26.80;;;15.27;;
30080;SDS011;16902;50.816;12.828;2022-11-20T10:40:44;26.33;;;14.90;;
30080;SDS011;16902;50.816;12.828;2022-11-20T10:51:12;19.43;;;14.10;;
30080;SDS011;16902;50.816;12.828;2022-11-20T10:56:19;28.27;;;15.90;;
30080;SDS011;16902;50.816;12.828;2022-11-20T11:01:50;23.40;;;14.17;;
30080;SDS011;16902;50.816;12.828;2022-11-20T11:06:51;23.20;;;14.17;;
30080;SDS011;16902;50.816;12.828;2022-11-20T11:12:00;25.70;;;15.17;;
30080;SDS011;16902;50.816;12.828;2022-11-20T11:17:17;25.23;;;15.43;;
30080;SDS011;16902;50.816;12.828;2022-11-20T11:22:22;26.17;;;16.83;;
30080;SDS011;16902;50.816;12.828;2022-11-20T11:27:23;22.57;;;14.80;;
30080;SDS011;16902;50.816;12.828;2022-11-20T11:32:25;28.90;;;16.57;;
30080;SDS011;16902;50.816;12.828;2022-11-20T11:37:32;26.03;;;15.47;;
30080;SDS011;16902;50.816;12.828;2022-11-20T11:42:53;25.00;;;15.17;;
30080;SDS011;16902;50.816;12.828;2022-11-20T11:47:57;25.40;;;15.00;;
30080;SDS011;16902;50.816;12.828;2022-11-20T12:03:38;24.23;;;15.20;;
30080;SDS011;16902;50.816;12.828;2022-11-20T12:08:50;27.97;;;15.43;;
30080;SDS011;16902;50.816;12.828;2022-11-20T12:13:58;26.23;;;17.37;;
30080;SDS011;16902;50.816;12.828;2022-11-20T12:19:13;32.17;;;16.70;;
30080;SDS011;16902;50.816;12.828;2022-11-20T12:35:24;49.13;;;27.27;;
30080;SDS011;16902;50.816;12.828;2022-11-20T12:41:14;28.83;;;18.80;;
30080;SDS011;16902;50.816;12.828;2022-11-20T12:46:25;27.83;;;16.97;;
30080;SDS011;16902;50.816;12.828;2022-11-20T12:52:17;31.13;;;17.07;;
30080;SDS011;16902;50.816;12.828;2022-11-20T13:07:39;30.97;;;18.70;;
30080;SDS011;16902;50.816;12.828;2022-11-20T13:12:48;27.50;;;16.27;;
30080;SDS011;16902;50.816;12.828;2022-11-20T13:18:00;29.00;;;18.10;;
30080;SDS011;16902;50.816;12.828;2022-11-20T13:23:04;33.00;;;18.93;;
30080;SDS011;16902;50.816;12.828;2022-11-20T13:38:52;27.73;;;17.27;;
30080;SDS011;16902;50.816;12.828;2022-11-20T13:43:59;29.17;;;18.83;;
30080;SDS011;16902;50.816;12.828;2022-11-20T13:49:16;32.80;;;18.10;;
30080;SDS011;16902;50.816;12.828;2022-11-20T14:05:20;26.33;;;16.83;;
30080;SDS011;16902;50.816;12.828;2022-11-20T14:10:25;27.07;;;17.90;;
30080;SDS011;16902;50.816;12.828;2022-11-20T14:15:33;30.50;;;20.30;;
30080;SDS011;16902;50.816;12.828;2022-11-20T14:20:39;22.67;;;14.70;;
30080;SDS011;16902;50.816;12.828;2022-11-20T14:25:43;27.33;;;17.53;;
30080;SDS011;16902;50.816;12.828;2022-11-20T14:30:47;27.87;;;16.47;;
30080;SDS011;16902;50.816;12.828;2022-11-20T14:35:50;29.63;;;17.23;;
30080;SDS011;16902;50.816;12.828;2022-11-20T14:41:05;22.17;;;13.93;;
30080;SDS011;16902;50.816;12.828;2022-11-20T14:46:17;24.23;;;13.70;;
30080;SDS011;16902;50.816;12.828;2022-11-20T14:51:38;26.00;;;15.23;;
30080;SDS011;16902;50.816;12.828;2022-11-20T14:57:00;24.90;;;15.53;;
30080;SDS011;16902;50.816;12.828;2022-11-20T15:02:05;23.27;;;14.73;;
30080;SDS011;16902;50.816;12.828;2022-11-20T15:07:11;24.73;;;16.17;;
30080;SDS011;16902;50.816;12.828;2022-11-20T15:12:15;27.87;;;15.70;;
30080;SDS011;16902;50.816;12.828;2022-11-20T15:17:19;21.80;;;14.47;;
30080;SDS011;16902;50.816;12.828;2022-11-20T15:22:20;27.13;;;16.57;;
30080;SDS011;16902;50.816;12.828;2022-11-20T15:27:22;24.63;;;15.33;;
30080;SDS011;16902;50.816;12.828;2022-11-20T15:32:24;27.87;;;16.00;;
30080;SDS011;16902;50.816;12.828;2022-11-20T15:37:26;28.77;;;15.77;;
30080;SDS011;16902;50.816;12.828;2022-11-20T15:42:30;25.60;;;15.90;;
30080;SDS011;16902;50.816;12.828;2022-11-20T15:47:33;27.80;;;16.83;;
30080;SDS011;16902;50.816;12.828;2022-11-20T15:52:36;28.87;;;17.23;;
30080;SDS011;16902;50.816;12.828;2022-11-20T15:57:42;30.60;;;17.27;;
30080;SDS011;16902;50.816;12.828;2022-11-20T16:02:44;36.97;;;20.93;;
30080;SDS011;16902;50.816;12.828;2022-11-20T16:07:46;34.77;;;20.67;;
30080;SDS011;16902;50.816;12.828;2022-11-20T16:12:48;37.23;;;21.37;;
30080;SDS011;16902;50.816;12.828;2022-11-20T16:18:08;39.20;;;22.93;;
30080;SDS011;16902;50.816;12.828;2022-11-20T16:23:12;40.10;;;23.33;;
30080;SDS011;16902;50.816;12.828;2022-11-20T16:28:15;43.90;;;25.37;;
30080;SDS011;16902;50.816;12.828;2022-11-20T16:33:19;44.00;;;25.43;;
30080;SDS011;16902;50.816;12.828;2022-11-20T16:38:21;38.27;;;23.63;;
30080;SDS011;16902;50.816;12.828;2022-11-20T16:43:23;38.13;;;23.17;;
30080;SDS011;16902;50.816;12.828;2022-11-20T16:48:25;36.27;;;21.70;;
30080;SDS011;16902;50.816;12.828;2022-11-20T16:53:26;37.57;;;20.83;;
30080;SDS011;16902;50.816;12.828;2022-11-20T16:58:28;41.03;;;23.97;;
30080;SDS011;16902;50.816;12.828;2022-11-20T17:03:30;41.77;;;24.47;;
30080;SDS011;16902;50.816;12.828;2022-11-20T17:08:32;39.00;;;23.50;;
30080;SDS011;16902;50.816;12.828;2022-11-20T17:13:34;39.97;;;24.27;;
30080;SDS011;16902;50.816;12.828;2022-11-20T17:18:40;40.00;;;24.25;;
30080;SDS011;16902;50.816;12.828;2022-11-20T17:23:42;43.67;;;24.77;;
30080;SDS011;16902;50.816;12.828;2022-11-20T17:28:46;39.30;;;24.07;;
30080;SDS011;16902;50.816;12.828;2022-11-20T17:33:54;41.53;;;24.97;;
30080;SDS011;16902;50.816;12.828;2022-11-20T17:38:57;58.80;;;33.60;;
30080;SDS011;16902;50.816;12.828;2022-11-20T17:43:59;50.37;;;31.30;;
30080;SDS011;16902;50.816;12.828;2022-11-20T17:49:04;74.30;;;41.97;;
30080;SDS011;16902;50.816;12.828;2022-11-20T17:54:06;66.50;;;37.60;;
30080;SDS011;16902;50.816;12.828;2022-11-20T17:59:09;52.80;;;29.27;;
30080;SDS011;16902;50.816;12.828;2022-11-20T18:04:12;51.77;;;29.83;;
30080;SDS011;16902;50.816;12.828;2022-11-20T18:09:14;53.03;;;28.97;;
30080;SDS011;16902;50.816;12.828;2022-11-20T18:14:16;54.90;;;31.47;;
30080;SDS011;16902;50.816;12.828;2022-11-20T18:19:33;49.80;;;30.50;;
30080;SDS011;16902;50.816;12.828;2022-11-20T18:24:45;65.80;;;35.77;;
30080;SDS011;16902;50.816;12.828;2022-11-20T18:29:47;52.17;;;32.10;;
30080;SDS011;16902;50.816;12.828;2022-11-20T18:34:52;58.03;;;34.30;;
30080;SDS011;16902;50.816;12.828;2022-11-20T18:39:54;63.33;;;33.57;;
30080;SDS011;16902;50.816;12.828;2022-11-20T18:44:57;61.93;;;33.33;;
30080;SDS011;16902;50.816;12.828;2022-11-20T18:50:00;57.43;;;34.57;;
30080;SDS011;16902;50.816;12.828;2022-11-20T18:55:03;60.90;;;36.03;;
30080;SDS011;16902;50.816;12.828;2022-11-20T19:00:06;49.53;;;32.37;;
30080;SDS011;16902;50.816;12.828;2022-11-20T19:05:10;81.03;;;46.10;;
30080;SDS011;16902;50.816;12.828;2022-11-20T19:10:16;74.87;;;45.70;;
30080;SDS011;16902;50.816;12.828;2022-11-20T19:15:20;78.33;;;49.23;;
30080;SDS011;16902;50.816;12.828;2022-11-20T19:20:22;80.83;;;49.03;;
30080;SDS011;16902;50.816;12.828;2022-11-20T19:25:25;74.23;;;43.30;;
30080;SDS011;16902;50.816;12.828;2022-11-20T19:30:27;69.33;;;41.07;;
30080;SDS011;16902;50.816;12.828;2022-11-20T19:35:29;64.67;;;41.33;;
30080;SDS011;16902;50.816;12.828;2022-11-20T19:40:31;67.47;;;42.73;;
30080;SDS011;16902;50.816;12.828;2022-11-20T19:45:33;65.13;;;42.13;;
30080;SDS011;16902;50.816;12.828;2022-11-20T19:50:34;68.97;;;43.73;;
30080;SDS011;16902;50.816;12.828;2022-11-20T19:55:36;69.60;;;41.43;;
30080;SDS011;16902;50.816;12.828;2022-11-20T20:00:38;62.87;;;34.50;;
30080;SDS011;16902;50.816;12.828;2022-11-20T20:05:40;60.30;;;36.03;;
30080;SDS011;16902;50.816;12.828;2022-11-20T20:10:42;65.17;;;36.43;;
30080;SDS011;16902;50.816;12.828;2022-11-20T20:15:44;66.23;;;37.40;;
30080;SDS011;16902;50.816;12.828;2022-11-20T20:20:46;64.27;;;38.17;;
30080;SDS011;16902;50.816;12.828;2022-11-20T20:25:47;62.97;;;39.73;;
30080;SDS011;16902;50.816;12.828;2022-11-20T20:30:49;65.07;;;39.13;;
30080;SDS011;16902;50.816;12.828;2022-11-20T20:35:52;63.87;;;39.63;;
30080;SDS011;16902;50.816;12.828;2022-11-20T20:40:54;66.10;;;40.47;;
30080;SDS011;16902;50.816;12.828;2022-11-20T20:45:56;67.17;;;40.80;;
30080;SDS011;16902;50.816;12.828;2022-11-20T20:50:59;60.33;;;37.07;;
30080;SDS011;16902;50.816;12.828;2022-11-20T20:56:03;57.63;;;33.87;;
30080;SDS011;16902;50.816;12.828;2022-11-20T21:01:06;57.30;;;34.33;;
30080;SDS011;16902;50.816;12.828;2022-11-20T21:06:09;53.33;;;31.67;;
30080;SDS011;16902;50.816;12.828;2022-11-20T21:11:13;47.70;;;30.60;;
30080;SDS011;16902;50.816;12.828;2022-11-20T21:16:17;51.27;;;33.07;;
30080;SDS011;16902;50.816;12.828;2022-11-20T21:21:21;52.60;;;29.70;;
30080;SDS011;16902;50.816;12.828;2022-11-20T21:26:41;48.80;;;29.97;;
30080;SDS011;16902;50.816;12.828;2022-11-20T21:31:43;48.73;;;29.83;;
30080;SDS011;16902;50.816;12.828;2022-11-20T21:36:45;49.87;;;31.03;;
30080;SDS011;16902;50.816;12.828;2022-11-20T21:41:47;48.67;;;31.07;;
30080;SDS011;16902;50.816;12.828;2022-11-20T21:46:49;55.10;;;34.03;;
30080;SDS011;16902;50.816;12.828;2022-11-20T21:51:51;57.47;;;36.47;;
30080;SDS011;16902;50.816;12.828;2022-11-20T21:56:54;64.97;;;40.33;;
30080;SDS011;16902;50.816;12.828;2022-11-20T22:01:55;60.30;;;38.37;;
30080;SDS011;16902;50.816;12.828;2022-11-20T22:06:57;64.13;;;40.27;;
30080;SDS011;16902;50.816;12.828;2022-11-20T22:11:59;58.67;;;38.00;;
30080;SDS011;16902;50.816;12.828;2022-11-20T22:17:01;56.50;;;37.03;;
30080;SDS011;16902;50.816;12.828;2022-11-20T22:22:03;52.23;;;33.03;;
30080;SDS011;16902;50.816;12.828;2022-11-20T22:27:05;48.47;;;32.07;;
30080;SDS011;16902;50.816;12.828;2022-11-20T22:32:07;48.07;;;31.63;;
30080;SDS011;16902;50.816;12.828;2022-11-20T22:37:09;54.53;;;33.37;;
30080;SDS011;16902;50.816;12.828;2022-11-20T22:42:12;53.87;;;33.63;;
30080;SDS011;16902;50.816;12.828;2022-11-20T22:47:14;55.43;;;34.47;;
30080;SDS011;16902;50.816;12.828;2022-11-20T22:52:16;57.60;;;36.10;;
30080;SDS011;16902;50.816;12.828;2022-11-20T22:57:18;56.13;;;37.40;;
30080;SDS011;16902;50.816;12.828;2022-11-20T23:02:19;59.77;;;37.00;;
30080;SDS011;16902;50.816;12.828;2022-11-20T23:07:21;60.50;;;36.37;;
30080;SDS011;16902;50.816;12.828;2022-11-20T23:12:23;54.43;;;36.97;;
30080;SDS011;16902;50.816;12.828;2022-11-20T23:17:25;59.20;;;36.80;;
30080;SDS011;16902;50.816;12.828;2022-11-20T23:22:27;61.47;;;37.97;;
30080;SDS011;16902;50.816;12.828;2022-11-20T23:27:28;61.57;;;36.67;;
30080;SDS011;16902;50.816;12.828;2022-11-20T23:32:30;57.53;;;37.00;;
30080;SDS011;16902;50.816;12.828;2022-11-20T23:37:32;57.37;;;36.23;;
30080;SDS011;16902;50.816;12.828;2022-11-20T23:42:34;55.00;;;36.67;;
30080;SDS011;16902;50.816;12.828;2022-11-20T23:47:36;56.33;;;36.53;;
30080;SDS011;16902;50.816;12.828;2022-11-20T23:52:37;57.07;;;37.47;;
30080;SDS011;16902;50.816;12.828;2022-11-20T23:57:39;55.87;;;36.53;;
